createdAt,value
2022-10-23T00:01:14.851Z,13.30
2022-10-23T00:06:17.199Z,13.30
2022-10-23T00:11:23.657Z,13.30
2022-10-23T00:16:26.794Z,13.30
2022-10-23T00:21:29.059Z,13.20
2022-10-23T00:26:33.174Z,13.20
2022-10-23T00:31:35.849Z,13.20
2022-10-23T00:36:39.550Z,13.20
2022-10-23T00:41:43.325Z,13.20
2022-10-23T00:46:45.692Z,13.10
2022-10-23T00:51:51.447Z,13.10
2022-10-23T00:56:59.071Z,13.10
2022-10-23T01:02:01.693Z,13.00
2022-10-23T01:07:12.234Z,13.00
2022-10-23T01:12:24.543Z,13.00
2022-10-23T01:17:35.028Z,13.00
2022-10-23T01:22:54.091Z,13.10
2022-10-23T01:28:03.054Z,13.10
2022-10-23T01:33:10.308Z,13.10
2022-10-23T01:38:16.900Z,13.00
2022-10-23T01:43:26.996Z,13.00
2022-10-23T01:48:32.102Z,13.00
2022-10-23T01:53:38.383Z,13.00
2022-10-23T01:58:45.772Z,13.00
2022-10-23T02:03:48.527Z,12.90
2022-10-23T02:08:51.499Z,12.90
2022-10-23T02:14:01.963Z,12.90
2022-10-23T02:19:13.208Z,12.80
2022-10-23T02:24:20.357Z,12.70
2022-10-23T02:29:28.173Z,12.70
2022-10-23T02:34:30.436Z,12.70
2022-10-23T02:39:32.849Z,12.60
2022-10-23T02:44:51.120Z,12.60
2022-10-23T02:50:01.694Z,12.70
2022-10-23T02:55:13.584Z,12.70
2022-10-23T03:00:20.069Z,12.60
2022-10-23T03:05:26.035Z,12.50
2022-10-23T03:10:28.479Z,12.50
2022-10-23T03:15:32.186Z,12.40
2022-10-23T03:20:34.884Z,12.40
2022-10-23T03:25:37.224Z,12.30
2022-10-23T03:30:40.810Z,12.30
2022-10-23T03:35:43.188Z,12.20
2022-10-23T03:40:45.608Z,12.20
2022-10-23T03:45:49.709Z,12.10
2022-10-23T03:50:52.311Z,12.10
2022-10-23T03:55:54.722Z,12.10
2022-10-23T04:00:58.904Z,12.10
2022-10-23T04:06:01.311Z,12.10
2022-10-23T04:11:03.695Z,12.00
2022-10-23T04:16:07.897Z,12.00
2022-10-23T04:21:10.969Z,12.00
2022-10-23T04:26:13.393Z,11.90
2022-10-23T04:31:17.118Z,11.90
2022-10-23T04:36:19.661Z,12.00
2022-10-23T04:41:21.830Z,12.00
2022-10-23T04:46:25.732Z,12.00
2022-10-23T04:51:28.282Z,12.00
2022-10-23T04:56:30.519Z,12.00
2022-10-23T05:01:34.532Z,12.10
2022-10-23T05:06:37.074Z,12.10
2022-10-23T05:11:39.360Z,12.10
2022-10-23T05:16:50.384Z,12.00
2022-10-23T05:21:53.907Z,12.00
2022-10-23T05:26:57.167Z,12.00
2022-10-23T05:32:05.136Z,12.00
2022-10-23T05:37:10.167Z,12.10
2022-10-23T05:42:12.639Z,12.00
2022-10-23T05:47:16.474Z,12.00
2022-10-23T05:52:18.758Z,12.00
2022-10-23T05:57:21.075Z,12.10
2022-10-23T06:02:25.013Z,12.10
2022-10-23T06:07:31.198Z,12.20
2022-10-23T06:12:35.934Z,12.20
2022-10-23T06:17:39.591Z,12.10
2022-10-23T06:22:42.351Z,12.10
2022-10-23T06:27:45.432Z,12.10
2022-10-23T06:32:49.341Z,12.10
2022-10-23T06:37:52.417Z,12.10
2022-10-23T06:49:16.868Z,12.20
2022-10-23T06:54:19.317Z,12.30
2022-10-23T06:59:21.773Z,12.40
2022-10-23T07:04:25.585Z,12.50
2022-10-23T07:09:28.126Z,12.60
2022-10-23T07:14:30.577Z,12.70
2022-10-23T07:19:34.705Z,12.70
2022-10-23T07:24:37.002Z,12.80
2022-10-23T07:29:39.421Z,12.90
2022-10-23T07:34:43.299Z,13.10
2022-10-23T07:39:45.487Z,13.20
2022-10-23T07:44:47.805Z,13.40
2022-10-23T07:49:51.585Z,13.50
2022-10-23T07:54:54.544Z,13.60
2022-10-23T07:59:56.872Z,13.70
2022-10-23T08:05:00.873Z,13.70
2022-10-23T08:10:04.064Z,13.80
2022-10-23T08:15:08.420Z,13.90
2022-10-23T08:20:19.504Z,14.00
2022-10-23T08:25:27.814Z,14.10
2022-10-23T08:30:31.551Z,14.20
2022-10-23T08:35:38.555Z,14.20
2022-10-23T08:40:47.258Z,14.40
2022-10-23T08:45:55.366Z,14.40
2022-10-23T08:51:06.246Z,14.50
2022-10-23T08:56:15.056Z,14.60
2022-10-23T09:01:33.235Z,14.70
2022-10-23T09:06:44.704Z,14.80
2022-10-23T09:11:55.213Z,14.90
2022-10-23T09:17:11.679Z,15.10
2022-10-23T09:22:15.942Z,15.20
2022-10-23T09:27:18.657Z,15.30
2022-10-23T09:32:32.463Z,15.50
2022-10-23T09:37:45.568Z,15.50
2022-10-23T09:42:54.078Z,15.70
2022-10-23T09:48:20.250Z,15.80
2022-10-23T09:53:48.792Z,16.00
2022-10-23T09:58:56.550Z,16.30
2022-10-23T10:03:59.788Z,16.60
2022-10-23T10:09:09.957Z,17.00
2022-10-23T10:14:44.087Z,17.40
2022-10-23T10:20:05.256Z,17.80
2022-10-23T10:25:20.545Z,18.10
2022-10-23T10:30:33.044Z,18.20
2022-10-23T10:35:43.280Z,18.30
2022-10-23T10:41:03.898Z,18.30
2022-10-23T10:46:12.090Z,18.20
2022-10-23T10:51:21.323Z,18.20
2022-10-23T10:56:35.136Z,18.30
2022-10-23T11:01:43.089Z,18.40
2022-10-23T11:06:48.932Z,18.60
2022-10-23T11:11:52.948Z,18.80
2022-10-23T11:17:03.713Z,18.90
2022-10-23T11:22:12.395Z,19.00
2022-10-23T11:27:28.766Z,19.00
2022-10-23T11:32:53.772Z,19.00
2022-10-23T11:38:30.957Z,19.00
2022-10-23T11:43:53.248Z,19.10
2022-10-23T11:48:57.034Z,19.10
2022-10-23T11:54:07.649Z,19.10
2022-10-23T11:59:23.258Z,19.10
2022-10-23T12:04:29.983Z,19.10
2022-10-23T12:09:44.017Z,19.10
2022-10-23T12:14:49.756Z,19.20
2022-10-23T12:19:54.662Z,19.20
2022-10-23T12:25:03.117Z,19.30
2022-10-23T12:30:24.959Z,19.40
2022-10-23T12:36:00.817Z,19.40
2022-10-23T12:41:13.408Z,19.30
2022-10-23T12:46:30.401Z,19.30
2022-10-23T12:51:35.509Z,19.30
2022-10-23T12:56:38.151Z,19.20
2022-10-23T13:01:43.447Z,19.20
2022-10-23T13:06:47.843Z,19.10
2022-10-23T13:11:51.411Z,19.00
2022-10-23T13:17:02.506Z,19.00
2022-10-23T13:22:15.130Z,19.00
2022-10-23T13:27:33.062Z,19.00
2022-10-23T13:32:37.382Z,18.90
2022-10-23T13:37:39.665Z,18.80
2022-10-23T13:42:42.213Z,18.80
2022-10-23T13:47:46.409Z,18.70
2022-10-23T13:52:49.330Z,18.70
2022-10-23T13:57:52.448Z,18.70
2022-10-23T14:02:56.436Z,18.60
2022-10-23T14:07:59.225Z,18.60
2022-10-23T14:13:01.703Z,18.50
2022-10-23T14:18:08.349Z,18.50
2022-10-23T14:23:11.029Z,18.50
2022-10-23T14:28:13.463Z,18.50
2022-10-23T14:33:17.344Z,18.40
2022-10-23T14:38:31.444Z,18.40
2022-10-23T14:43:56.951Z,18.40
2022-10-23T14:49:07.165Z,18.30
2022-10-23T14:54:09.653Z,18.30
2022-10-23T14:59:56.082Z,18.20
2022-10-23T15:05:27.219Z,18.20
2022-10-23T15:10:54.435Z,18.10
2022-10-23T15:16:29.311Z,18.10
2022-10-23T15:21:33.037Z,18.10
2022-10-23T15:26:35.437Z,18.10
2022-10-23T15:31:43.384Z,18.00
2022-10-23T15:36:48.383Z,17.90
2022-10-23T15:41:53.596Z,17.90
2022-10-23T15:47:01.270Z,17.90
2022-10-23T15:52:07.833Z,17.80
2022-10-23T15:57:11.085Z,17.80
2022-10-23T16:02:22.620Z,17.70
2022-10-23T16:07:35.245Z,17.70
2022-10-23T16:12:37.908Z,17.70
2022-10-23T16:17:40.871Z,17.60
2022-10-23T16:22:47.066Z,17.60
2022-10-23T16:27:49.464Z,17.60
2022-10-23T16:32:51.822Z,17.50
2022-10-23T16:37:55.560Z,17.50
2022-10-23T16:42:58.054Z,17.60
2022-10-23T16:48:08.594Z,17.50
2022-10-23T16:53:12.825Z,17.50
2022-10-23T16:58:15.084Z,17.50
2022-10-23T17:03:17.360Z,17.40
2022-10-23T17:08:21.577Z,17.40
2022-10-23T17:13:23.770Z,17.40
2022-10-23T17:18:26.068Z,17.40
2022-10-23T17:23:30.082Z,17.40
2022-10-23T17:28:32.819Z,17.40
2022-10-23T17:33:35.259Z,17.40
2022-10-23T17:38:40.254Z,17.50
2022-10-23T17:43:43.382Z,17.40
2022-10-23T17:48:45.592Z,17.40
2022-10-23T17:53:51.355Z,17.40
2022-10-23T17:58:55.625Z,17.40
2022-10-23T18:04:01.226Z,17.40
2022-10-23T18:09:06.195Z,17.40
2022-10-23T18:14:08.592Z,17.40
2022-10-23T18:19:11.305Z,17.40
2022-10-23T18:24:15.608Z,17.40
2022-10-23T18:29:18.671Z,17.50
2022-10-23T18:34:23.111Z,17.50
2022-10-23T18:39:27.150Z,17.50
2022-10-23T18:44:29.918Z,17.60
2022-10-23T18:49:32.267Z,17.60
2022-10-23T18:54:36.161Z,17.70
2022-10-23T18:59:38.596Z,17.70
2022-10-23T19:04:41.509Z,17.70
2022-10-23T19:09:45.804Z,17.80
2022-10-23T19:15:01.225Z,17.80
2022-10-23T19:20:18.764Z,17.90
2022-10-23T19:25:46.109Z,17.80
2022-10-23T19:31:07.149Z,17.90
2022-10-23T19:36:23.463Z,17.90
2022-10-23T19:42:05.454Z,18.00
2022-10-23T19:47:22.324Z,18.00
2022-10-23T19:52:24.874Z,18.10
2022-10-23T19:57:27.580Z,18.10
2022-10-23T20:07:42.322Z,18.20
2022-10-23T20:12:56.075Z,18.20
2022-10-23T20:18:06.684Z,18.20
2022-10-23T20:23:09.279Z,18.30
2022-10-23T20:28:14.317Z,18.30
2022-10-23T20:33:19.436Z,18.30
2022-10-23T20:38:21.663Z,18.30
2022-10-23T20:43:23.938Z,18.30
2022-10-23T20:48:27.921Z,18.30
2022-10-23T20:53:30.454Z,18.30
2022-10-23T20:58:32.932Z,18.30
2022-10-23T21:03:37.095Z,18.30
2022-10-23T21:08:40.714Z,18.20
2022-10-23T21:13:43.953Z,18.30
2022-10-23T21:18:48.386Z,18.20
2022-10-23T21:23:52.688Z,18.30
2022-10-23T21:28:56.245Z,18.30
2022-10-23T21:34:14.981Z,18.40
2022-10-23T21:39:18.407Z,18.40
2022-10-23T21:44:20.779Z,18.50
2022-10-23T21:49:24.415Z,18.50
2022-10-23T21:54:26.708Z,18.60
2022-10-23T21:59:30.398Z,18.70
2022-10-23T22:04:35.787Z,18.60
2022-10-23T22:09:38.287Z,18.70
2022-10-23T22:14:40.682Z,18.60
2022-10-23T22:19:44.797Z,18.60
2022-10-23T22:24:47.223Z,18.70
2022-10-23T22:29:49.754Z,18.60
2022-10-23T22:34:53.727Z,18.60
2022-10-23T22:39:56.594Z,18.50
2022-10-23T22:44:59.202Z,18.40
2022-10-23T22:50:02.904Z,18.40
2022-10-23T22:55:06.139Z,18.40
2022-10-23T23:00:09.136Z,18.40
2022-10-23T23:05:13.439Z,18.30
2022-10-23T23:10:15.913Z,18.30
2022-10-23T23:15:18.585Z,18.20
2022-10-23T23:20:22.385Z,18.20
2022-10-23T23:25:25.206Z,18.10
2022-10-23T23:30:27.582Z,18.10
2022-10-23T23:35:31.543Z,18.00
2022-10-23T23:40:34.322Z,17.90
2022-10-23T23:45:36.625Z,17.90
2022-10-23T23:50:40.534Z,17.80
